Time;durP1;ratioP1;P1;durP2;ratioP2;P2;SDS_P1;SDS_P2;PMS_P1;PMS_P2;Temp;Humidity;BMP_temperature;BMP_pressure;BME280_temperature;BME280_humidity;BME280_pressure;Samples;Min_cycle;Max_cycle;Signal;HPM_P1;HPM_P2
2021/10/15 00:01:33;;;;;;;;;13.00;12.00;;;;;18.41;47.18;101718.63;5057613;28;45273;-61
2021/10/15 00:03:59;;;;;;;;;14.33;13.00;;;;;18.40;46.95;101720.41;5057862;28;45371;-54
2021/10/15 00:06:24;;;;;;;;;12.67;12.33;;;;;18.41;47.07;101721.28;5040076;28;45282;-55
2021/10/15 00:08:49;;;;;;;;;14.75;13.25;;;;;18.40;47.11;101725.72;5057558;28;46137;-54
2021/10/15 00:11:15;;;;;;;;;14.00;13.33;;;;;18.40;47.09;101720.41;5057715;28;45330;-57
2021/10/15 00:13:41;;;;;;;;;15.33;14.33;;;;;18.42;46.84;101730.16;5056958;28;45391;-57
2021/10/15 00:16:06;;;;;;;;;15.33;15.00;;;;;18.40;47.04;101728.38;5057783;28;45514;-58
2021/10/15 00:18:32;;;;;;;;;15.00;14.00;;;;;18.39;47.09;101723.97;5057309;28;46122;-56
2021/10/15 00:20:57;;;;;;;;;13.00;13.00;;;;;18.40;47.21;101723.06;5057445;28;45391;-61
2021/10/15 00:23:23;;;;;;;;;13.00;11.00;;;;;18.40;46.78;101719.53;5057863;28;45459;-54
2021/10/15 00:25:48;;;;;;;;;15.67;14.33;;;;;18.39;46.87;101731.94;5057567;28;45475;-58
2021/10/15 00:28:14;;;;;;;;;14.00;13.00;;;;;18.39;46.85;101726.63;5057470;28;46832;-60
2021/10/15 00:30:39;;;;;;;;;13.00;12.00;;;;;18.39;46.78;101718.63;5057149;28;45455;-55
2021/10/15 00:33:05;;;;;;;;;15.67;15.00;;;;;18.39;47.11;101715.97;5057433;28;45439;-58
2021/10/15 00:35:30;;;;;;;;;14.00;14.00;;;;;18.40;46.62;101717.72;5057367;28;45434;-55
2021/10/15 00:37:55;;;;;;;;;16.33;12.67;;;;;18.40;46.87;101720.41;5057078;28;47724;-58
2021/10/15 00:40:21;;;;;;;;;12.00;11.00;;;;;18.40;46.79;101717.72;5057459;28;45327;-58
2021/10/15 00:42:47;;;;;;;;;13.67;12.67;;;;;18.39;46.70;101718.63;5057333;28;45452;-61
2021/10/15 00:45:13;;;;;;;;;11.33;11.00;;;;;18.39;46.79;101720.41;5057400;28;45540;-55
2021/10/15 00:47:38;;;;;;;;;15.33;12.67;;;;;18.40;46.48;101715.06;5057022;28;47586;-54
2021/10/15 00:50:05;;;;;;;;;14.00;12.33;;;;;18.40;46.61;101711.53;5056986;28;45196;-57
2021/10/15 00:52:31;;;;;;;;;13.33;12.33;;;;;18.40;46.65;101714.22;5057100;28;45216;-59
2021/10/15 00:54:56;;;;;;;;;18.67;15.00;;;;;18.39;46.48;101709.75;5057063;28;45386;-55
2021/10/15 00:57:22;;;;;;;;;15.67;13.00;;;;;18.39;46.65;101715.97;5056927;28;46080;-55
2021/10/15 00:59:47;;;;;;;;;14.33;12.00;;;;;18.39;46.62;101708.00;5056870;28;45375;-61
2021/10/15 01:02:13;;;;;;;;;16.00;14.33;;;;;18.40;46.49;101709.75;5057002;28;45322;-55
2021/10/15 01:04:39;;;;;;;;;13.67;12.67;;;;;18.40;46.53;101706.22;5057170;28;45473;-57
2021/10/15 01:07:06;;;;;;;;;13.67;13.00;;;;;18.40;46.63;101701.75;5056711;28;47191;-52
2021/10/15 01:09:31;;;;;;;;;12.00;12.00;;;;;18.38;46.82;101700.88;5056763;28;45331;-52
2021/10/15 01:11:59;;;;;;;;;15.67;12.00;;;;;18.40;46.64;101703.56;5056579;28;45355;-55
2021/10/15 01:14:24;;;;;;;;;15.33;13.00;;;;;18.40;46.26;101703.56;5057142;28;45219;-59
2021/10/15 01:16:49;;;;;;;;;13.67;11.33;;;;;18.39;46.72;101702.66;5056508;28;46921;-60
2021/10/15 01:19:15;;;;;;;;;12.00;12.00;;;;;18.39;46.79;101700.00;5056487;28;45542;-57
2021/10/15 01:21:40;;;;;;;;;14.00;12.00;;;;;18.38;46.41;101690.22;5056815;28;45405;-57
2021/10/15 01:24:06;;;;;;;;;13.00;13.00;;;;;18.38;46.70;101700.88;5056860;28;45475;-58
2021/10/15 01:26:32;;;;;;;;;17.00;12.33;;;;;18.38;46.42;101690.22;5056325;28;47122;-58
2021/10/15 01:28:57;;;;;;;;;13.33;11.67;;;;;18.38;46.34;101679.56;5056530;28;45363;-58
2021/10/15 01:31:25;;;;;;;;;11.67;11.00;;;;;18.38;46.66;101682.25;5056613;28;45380;-61
2021/10/15 01:33:53;;;;;;;;;14.33;12.00;;;;;18.38;46.50;101676.91;5056728;28;45506;-56
2021/10/15 01:36:19;;;;;;;;;14.00;14.00;;;;;18.39;46.37;101677.81;5055969;28;47182;-56
2021/10/15 01:38:44;;;;;;;;;17.00;13.00;;;;;18.38;46.17;101674.25;5056307;28;45177;-58
2021/10/15 01:41:09;;;;;;;;;14.67;13.33;;;;;18.38;46.61;101668.94;5056496;28;45243;-55
2021/10/15 01:43:35;;;;;;;;;11.33;10.67;;;;;18.39;46.40;101672.50;5057114;28;45595;-52
2021/10/15 01:46:01;;;;;;;;;13.33;12.33;;;;;18.38;46.45;101668.94;5038291;28;45341;-54
2021/10/15 01:48:26;;;;;;;;;13.67;12.00;;;;;18.38;46.32;101671.59;5056267;28;45409;-59
2021/10/15 01:50:52;;;;;;;;;11.67;11.33;;;;;18.38;46.54;101678.72;5056592;28;45555;-57
2021/10/15 01:53:18;;;;;;;;;13.67;12.33;;;;;18.37;46.41;101669.84;5056274;28;45450;-56
2021/10/15 01:55:44;;;;;;;;;13.00;10.67;;;;;18.38;46.61;101660.09;5055867;28;46386;-57
2021/10/15 01:58:09;;;;;;;;;12.00;12.00;;;;;18.37;46.31;101656.53;5056138;28;45294;-52
2021/10/15 02:00:35;;;;;;;;;11.33;10.00;;;;;18.36;46.33;101657.41;5056127;28;45290;-55
2021/10/15 02:03:01;;;;;;;;;15.00;13.00;;;;;18.37;46.24;101653.88;5056446;28;45514;-56
2021/10/15 02:05:26;;;;;;;;;12.67;12.67;;;;;18.38;46.26;101654.75;5056175;28;46124;-57
2021/10/15 02:07:52;;;;;;;;;13.00;12.33;;;;;18.38;46.55;101654.75;5056123;28;45311;-61
2021/10/15 02:10:18;;;;;;;;;11.00;11.00;;;;;18.37;46.42;101655.63;5056281;28;45203;-54
2021/10/15 02:12:44;;;;;;;;;12.00;12.00;;;;;18.37;46.19;101653.88;5056134;28;45393;-54
2021/10/15 02:15:12;;;;;;;;;13.00;13.00;;;;;18.38;46.13;101652.09;5055674;28;46184;-54
2021/10/15 02:17:38;;;;;;;;;12.00;12.00;;;;;18.38;46.26;101652.09;5055769;28;45494;-55
2021/10/15 02:20:06;;;;;;;;;12.67;11.00;;;;;18.36;46.20;101649.41;5055889;28;45496;-59
2021/10/15 02:22:31;;;;;;;;;10.67;10.33;;;;;18.37;46.37;101651.19;5056114;28;45319;-56
2021/10/15 02:24:57;;;;;;;;;11.00;11.00;;;;;18.38;46.09;101646.78;5055615;28;46051;-55
2021/10/15 02:27:23;;;;;;;;;14.33;12.00;;;;;18.36;46.48;101644.09;5055918;28;45514;-58
2021/10/15 02:29:48;;;;;;;;;13.67;12.00;;;;;18.37;46.41;101645.88;5055994;28;45285;-57
2021/10/15 02:32:13;;;;;;;;;11.33;11.33;;;;;18.37;46.09;101642.31;5056040;28;45370;-60
2021/10/15 02:34:39;;;;;;;;;13.33;12.33;;;;;18.37;46.39;101640.56;5055438;28;45894;-57
2021/10/15 02:37:04;;;;;;;;;14.67;13.00;;;;;18.36;46.10;101636.09;5055816;28;45281;-57
2021/10/15 02:39:30;;;;;;;;;13.33;11.67;;;;;18.37;46.07;101640.56;5059191;28;45467;-53
2021/10/15 02:41:55;;;;;;;;;13.00;11.00;;;;;18.36;46.15;101625.44;5059576;28;45369;-56
2021/10/15 02:44:21;;;;;;;;;11.67;11.67;;;;;18.37;46.11;101624.59;5058983;28;46400;-54
2021/10/15 02:46:46;;;;;;;;;15.67;14.33;;;;;18.37;46.27;101621.03;5059247;28;45158;-60
2021/10/15 02:49:11;;;;;;;;;12.67;12.00;;;;;18.36;46.25;101620.13;5040896;28;45494;-58
2021/10/15 02:51:37;;;;;;;;;11.67;11.67;;;;;18.35;46.36;101625.47;5059396;28;45327;-52
2021/10/15 02:54:03;;;;;;;;;13.00;13.00;;;;;18.35;46.28;101631.69;5058807;28;46290;-57
2021/10/15 02:56:29;;;;;;;;;12.33;12.00;;;;;18.36;46.49;101628.13;5058633;28;45404;-55
2021/10/15 02:58:55;;;;;;;;;13.33;11.67;;;;;18.37;46.06;101637.00;5059041;28;45367;-59
2021/10/15 03:01:21;;;;;;;;;12.00;10.00;;;;;18.36;46.39;101636.09;5058985;28;45461;-55
2021/10/15 03:03:46;;;;;;;;;9.00;8.67;;;;;18.36;46.38;101636.09;5058644;28;46983;-58
2021/10/15 03:06:11;;;;;;;;;7.67;7.67;;;;;18.35;46.32;101626.34;5058812;28;45339;-60
2021/10/15 03:08:37;;;;;;;;;12.67;12.67;;;;;18.35;46.39;101626.34;5058688;28;45355;-57
2021/10/15 03:11:03;;;;;;;;;15.67;15.67;;;;;18.35;46.24;101626.34;5059212;28;45366;-59
2021/10/15 03:13:29;;;;;;;;;10.67;10.67;;;;;18.35;46.09;101626.34;5058492;28;46143;-58
2021/10/15 03:15:54;;;;;;;;;14.33;11.00;;;;;18.35;46.15;101626.34;5058629;28;45241;-53
2021/10/15 03:18:19;;;;;;;;;11.67;10.33;;;;;18.36;46.11;101633.44;5058944;28;45396;-61
2021/10/15 03:20:45;;;;;;;;;13.00;13.00;;;;;18.34;46.00;101629.03;5058738;28;45478;-54
2021/10/15 03:23:11;;;;;;;;;12.00;11.33;;;;;18.35;46.33;101620.13;5058322;28;46287;-56
2021/10/15 03:25:37;;;;;;;;;10.00;10.00;;;;;18.35;46.05;101621.03;5057032;28;45572;-53
2021/10/15 03:28:03;;;;;;;;;15.00;13.00;;;;;18.35;46.11;101625.47;5057583;28;45413;-56
2021/10/15 03:30:29;;;;;;;;;15.00;12.00;;;;;18.35;46.00;101617.47;5058443;28;45426;-50
2021/10/15 03:32:55;;;;;;;;;14.33;11.67;;;;;18.35;46.27;101620.13;5058286;28;47102;-54
2021/10/15 03:35:20;;;;;;;;;15.00;14.00;;;;;18.36;46.03;101628.13;5057930;28;45450;-51
2021/10/15 03:37:45;;;;;;;;;14.00;13.00;;;;;18.35;46.17;101614.81;5058214;28;45324;-52
2021/10/15 03:40:11;;;;;;;;;9.67;9.00;;;;;18.34;46.14;101619.25;5058610;28;45378;-53
2021/10/15 03:42:37;;;;;;;;;15.33;12.33;;;;;18.35;46.23;101623.69;5057790;28;47207;-58
2021/10/15 03:45:05;;;;;;;;;13.67;12.00;;;;;18.33;46.33;101622.81;5058230;28;45228;-56
2021/10/15 03:47:31;;;;;;;;;12.67;11.33;;;;;18.36;46.21;101625.44;5058168;28;45256;-52
2021/10/15 03:49:56;;;;;;;;;17.00;13.00;;;;;18.36;46.36;101625.44;5056950;28;45510;-52
2021/10/15 03:52:21;;;;;;;;;12.33;12.33;;;;;18.35;46.18;101620.13;5039941;28;47251;-63
2021/10/15 03:54:47;;;;;;;;;17.00;13.67;;;;;18.35;46.13;101620.13;5057719;28;45445;-61
2021/10/15 03:57:12;;;;;;;;;14.33;12.67;;;;;18.35;46.04;101614.81;5057969;28;45481;-57
2021/10/15 03:59:37;;;;;;;;;16.00;14.00;;;;;18.35;46.40;101621.03;5058209;28;45394;-55
2021/10/15 04:02:03;;;;;;;;;14.00;14.00;;;;;18.34;46.42;101613.06;5057673;28;45457;-51
2021/10/15 04:04:28;;;;;;;;;16.67;15.00;;;;;18.34;46.26;101611.25;5057181;28;45391;-58
2021/10/15 04:06:55;;;;;;;;;18.00;16.67;;;;;18.34;46.33;101613.06;5057949;28;45307;-57
2021/10/15 04:09:20;;;;;;;;;19.00;17.33;;;;;18.34;46.00;101610.41;5056952;28;45374;-54
2021/10/15 04:11:46;;;;;;;;;16.33;13.67;;;;;18.34;46.28;101605.94;5057375;28;46416;-62
2021/10/15 04:14:11;;;;;;;;;18.67;18.00;;;;;18.34;46.17;101613.94;5057760;28;45292;-56
2021/10/15 04:16:37;;;;;;;;;19.00;17.67;;;;;18.33;46.46;101612.16;5057662;28;45423;-56
2021/10/15 04:19:03;;;;;;;;;19.33;17.00;;;;;18.34;46.05;101613.06;5057833;28;45515;-58
2021/10/15 04:21:28;;;;;;;;;21.00;18.67;;;;;18.34;46.34;101608.59;5057542;28;46997;-52
2021/10/15 04:23:53;;;;;;;;;19.67;17.67;;;;;18.34;46.33;101608.59;5057470;28;45264;-53
2021/10/15 04:26:19;;;;;;;;;16.00;15.00;;;;;18.34;46.19;101607.75;5057740;28;45382;-57
2021/10/15 04:28:44;;;;;;;;;17.67;17.67;;;;;18.34;46.11;101599.75;5057714;28;45295;-55
2021/10/15 04:31:10;;;;;;;;;20.00;18.67;;;;;18.34;46.14;101599.75;5057082;28;47288;-55
2021/10/15 04:33:35;;;;;;;;;19.67;18.33;;;;;18.32;46.42;101594.41;5057265;28;45304;-62
2021/10/15 04:36:01;;;;;;;;;20.67;19.00;;;;;18.35;46.19;101590.88;5057038;28;45410;-61
2021/10/15 04:38:26;;;;;;;;;17.00;15.67;;;;;18.34;46.06;101592.63;5057559;28;45426;-61
2021/10/15 04:40:51;;;;;;;;;18.67;14.67;;;;;18.34;46.34;101592.63;5057247;28;45840;-50
2021/10/15 04:43:17;;;;;;;;;23.33;17.67;;;;;18.34;46.32;101589.97;5057010;28;45331;-57
2021/10/15 04:45:42;;;;;;;;;19.00;18.33;;;;;18.34;46.20;101592.63;5057192;28;45410;-53
2021/10/15 04:48:08;;;;;;;;;20.33;17.67;;;;;18.34;46.20;101581.97;5057215;28;45419;-57
2021/10/15 04:50:36;;;;;;;;;22.67;20.33;;;;;18.34;46.27;101578.47;5057065;28;46167;-56
2021/10/15 04:53:06;;;;;;;;;21.33;18.67;;;;;18.33;46.23;101568.69;5056855;28;45272;-53
2021/10/15 04:55:33;;;;;;;;;18.33;17.33;;;;;18.32;46.28;101573.13;5056828;28;45408;-55
2021/10/15 04:58:00;;;;;;;;;16.67;15.67;;;;;18.33;46.25;101572.25;5056956;28;45461;-55
2021/10/15 05:00:27;;;;;;;;;18.33;17.00;;;;;18.33;46.41;101569.56;5056231;28;46188;-56
2021/10/15 05:02:52;;;;;;;;;17.00;15.33;;;;;18.32;46.18;101575.78;5057116;28;45346;-56
2021/10/15 05:05:21;;;;;;;;;22.00;18.00;;;;;18.33;46.27;101580.22;5056919;28;45214;-57
2021/10/15 05:07:46;;;;;;;;;21.33;19.00;;;;;18.32;46.23;101583.75;5057230;28;45466;-54
2021/10/15 05:10:12;;;;;;;;;20.67;18.67;;;;;18.32;46.27;101582.91;5056371;28;46178;-55
2021/10/15 05:12:39;;;;;;;;;16.00;15.67;;;;;18.32;46.31;101577.56;5056502;28;45454;-55
2021/10/15 05:15:08;;;;;;;;;23.67;18.67;;;;;18.31;46.03;101574.03;5056710;28;45341;-55
2021/10/15 05:17:35;;;;;;;;;21.00;18.67;;;;;18.32;46.05;101574.91;5056828;28;45366;-58
2021/10/15 05:20:01;;;;;;;;;19.33;16.67;;;;;18.30;46.35;101569.56;5056519;28;47057;-62
2021/10/15 05:22:26;;;;;;;;;18.33;17.00;;;;;18.33;46.21;101579.34;5056427;28;45292;-54
2021/10/15 05:24:51;;;;;;;;;19.67;18.00;;;;;18.33;46.06;101579.34;5056881;28;45690;-52
2021/10/15 05:27:17;;;;;;;;;19.67;19.00;;;;;18.33;46.42;101576.66;5056897;28;45498;-57
2021/10/15 05:29:47;;;;;;;;;20.00;18.67;;;;;18.33;46.49;101579.34;5056613;28;45471;-54
2021/10/15 05:32:13;;;;;;;;;24.33;18.33;;;;;18.32;46.45;101575.78;5056316;28;45220;-55
2021/10/15 05:34:38;;;;;;;;;17.00;16.33;;;;;18.32;46.21;101577.56;5056332;28;45268;-58
2021/10/15 05:37:04;;;;;;;;;17.67;17.33;;;;;18.31;46.08;101567.81;5056515;28;45236;-55
2021/10/15 05:39:29;;;;;;;;;21.33;17.33;;;;;18.31;46.15;101576.69;5056097;28;47272;-54
2021/10/15 05:41:55;;;;;;;;;19.00;17.67;;;;;18.31;46.07;101576.69;5056418;28;45445;-53
2021/10/15 05:44:20;;;;;;;;;19.67;19.00;;;;;18.31;46.48;101576.69;5056228;28;45452;-54
2021/10/15 05:46:45;;;;;;;;;18.67;18.33;;;;;18.31;46.33;101582.00;5056683;28;45426;-51
2021/10/15 05:49:11;;;;;;;;;20.00;17.67;;;;;18.32;46.42;101580.25;5056074;28;47062;-52
2021/10/15 05:51:40;;;;;;;;;21.33;19.33;;;;;18.31;46.44;101576.69;5056108;28;45413;-50
2021/10/15 05:54:08;;;;;;;;;13.33;12.00;;;;;18.32;47.18;101574.91;5055737;28;45391;-56
2021/10/15 05:59:05;;;;;;;;;14.67;12.67;;;;;18.32;47.67;101573.13;5056010;28;45963;-51
2021/10/15 06:01:32;;;;;;;;;14.33;13.67;;;;;18.32;47.85;101575.78;5055832;28;45513;-55
2021/10/15 06:04:38;;;;;;;;;15.00;14.33;;;;;18.33;47.74;101576.66;5056161;28;45349;-58
2021/10/15 06:14:49;;;;;;;;;16.00;14.00;;;;;18.33;48.46;101588.22;5059676;28;45343;-55
2021/10/15 06:17:17;;;;;;;;;12.00;11.00;;;;;18.34;48.55;101592.63;5059279;28;45280;-57
2021/10/15 06:22:18;;;;;;;;;13.33;12.33;;;;;18.34;48.57;101592.63;5059349;28;45376;-57
2021/10/15 06:24:43;;;;;;;;;17.67;14.00;;;;;18.34;48.98;101597.94;5059174;28;45399;-51
2021/10/15 06:27:09;;;;;;;;;14.67;13.00;;;;;18.35;48.84;101598.84;5059559;28;45334;-57
2021/10/15 06:29:34;;;;;;;;;13.33;13.33;;;;;18.38;49.54;101604.19;5059222;28;47114;-50
2021/10/15 06:31:59;;;;;;;;;16.00;14.00;;;;;18.39;49.81;101601.50;5059115;28;45466;-56
2021/10/15 06:34:25;;;;;;;;;16.67;15.33;;;;;18.40;49.39;101597.09;5059300;28;45529;-62
2021/10/15 06:36:50;;;;;;;;;17.00;15.00;;;;;18.40;49.41;101597.94;5059271;28;45328;-62
2021/10/15 06:39:17;;;;;;;;;13.67;13.67;;;;;18.40;50.04;101600.59;5059119;28;47010;-62
2021/10/15 06:41:42;;;;;;;;;13.00;12.33;;;;;18.40;49.88;101603.25;5059039;28;45473;-63
2021/10/15 06:44:07;;;;;;;;;16.67;15.00;;;;;18.40;49.54;101592.63;5059173;28;45355;-61
2021/10/15 06:46:33;;;;;;;;;18.00;15.00;;;;;18.41;49.80;101596.19;5059248;28;45391;-60
2021/10/15 06:48:58;;;;;;;;;12.67;12.67;;;;;18.39;49.42;101590.88;5058747;28;47012;-61
2021/10/15 06:51:23;;;;;;;;;12.67;12.67;;;;;18.41;49.30;101604.16;5059015;28;45348;-62
2021/10/15 06:53:49;;;;;;;;;17.33;14.67;;;;;18.40;49.78;101597.94;5058794;28;45256;-61
2021/10/15 06:56:14;;;;;;;;;15.67;12.67;;;;;18.40;49.38;101599.75;5059106;28;45414;-62
2021/10/15 06:58:40;;;;;;;;;15.00;15.00;;;;;18.38;49.50;101599.72;5058662;28;45346;-63
2021/10/15 07:01:06;;;;;;;;;13.33;13.33;;;;;18.39;49.41;101588.19;5040705;28;45349;-60
2021/10/15 07:03:31;;;;;;;;;16.33;13.33;;;;;18.39;49.33;101595.28;5058633;28;45315;-62
2021/10/15 07:05:57;;;;;;;;;17.67;14.67;;;;;18.39;49.50;101596.19;5058796;28;45231;-62
2021/10/15 07:08:24;;;;;;;;;17.00;15.00;;;;;18.39;49.48;101589.97;5058862;28;45434;-63
2021/10/15 07:10:49;;;;;;;;;16.00;15.33;;;;;18.39;49.38;101597.94;5040263;28;45343;-63
2021/10/15 07:13:15;;;;;;;;;15.33;14.00;;;;;18.38;49.03;101594.41;5058473;28;45426;-61
2021/10/15 07:15:43;;;;;;;;;14.67;13.00;;;;;18.38;49.19;101597.06;5040631;28;45407;-63
2021/10/15 07:18:08;;;;;;;;;12.33;12.33;;;;;18.39;49.36;101600.63;5058323;28;46361;-62
2021/10/15 07:20:35;;;;;;;;;15.67;13.33;;;;;18.37;49.29;101597.06;5058427;28;45303;-58
2021/10/15 07:23:02;;;;;;;;;12.67;11.00;;;;;18.38;49.22;101615.69;5058279;28;45350;-60
2021/10/15 07:25:27;;;;;;;;;16.33;14.00;;;;;18.37;49.11;101613.94;5058669;28;45403;-59
2021/10/15 07:27:53;;;;;;;;;12.67;12.00;;;;;18.37;49.13;101624.59;5058221;28;45351;-57
2021/10/15 07:30:19;;;;;;;;;14.00;13.00;;;;;18.38;49.22;101622.81;5058267;28;45411;-57
2021/10/15 07:32:45;;;;;;;;;13.67;13.00;;;;;18.38;49.32;101628.13;5058207;28;45452;-55
2021/10/15 07:35:11;;;;;;;;;14.67;14.33;;;;;18.38;49.32;101637.00;5057930;28;45417;-58
2021/10/15 07:37:36;;;;;;;;;12.33;12.33;;;;;18.38;49.26;101636.13;5057909;28;47199;-57
2021/10/15 07:40:04;;;;;;;;;15.00;13.00;;;;;18.39;49.48;101624.56;5057942;28;45219;-55
2021/10/15 07:42:29;;;;;;;;;14.67;14.67;;;;;18.38;49.25;101626.34;5058419;28;45305;-58
2021/10/15 07:44:55;;;;;;;;;14.67;14.00;;;;;18.38;49.40;101614.84;5058486;28;45163;-62
2021/10/15 07:47:20;;;;;;;;;16.67;13.00;;;;;18.37;49.25;101621.91;5057901;28;45933;-58
2021/10/15 07:49:46;;;;;;;;;15.67;11.00;;;;;18.38;49.11;101625.47;5057979;28;45236;-63
2021/10/15 07:52:11;;;;;;;;;14.33;13.00;;;;;18.37;49.21;101629.00;5058099;28;45176;-62
2021/10/15 07:54:36;;;;;;;;;17.00;15.00;;;;;18.37;49.38;101624.59;5058238;28;45418;-62
2021/10/15 07:57:04;;;;;;;;;17.00;15.33;;;;;18.37;49.34;101632.56;5057689;28;46916;-59
2021/10/15 07:59:30;;;;;;;;;13.33;13.33;;;;;18.36;48.99;101628.13;5057115;28;45468;-62
2021/10/15 08:01:55;;;;;;;;;16.67;15.00;;;;;18.38;49.30;101630.81;5057775;28;45342;-58
2021/10/15 08:04:20;;;;;;;;;16.67;15.00;;;;;18.37;49.14;101629.91;5058117;28;45305;-63
2021/10/15 08:06:46;;;;;;;;;14.00;13.33;;;;;18.37;49.01;101635.22;5039792;28;45570;-62
2021/10/15 08:09:12;;;;;;;;;13.67;13.67;;;;;18.37;48.97;101635.22;5057578;28;45259;-62
2021/10/15 08:11:37;;;;;;;;;16.00;15.00;;;;;18.38;49.20;101636.13;5057673;28;45359;-57
2021/10/15 08:14:03;;;;;;;;;15.33;13.33;;;;;18.37;49.15;101639.66;5058011;28;45289;-59
2021/10/15 08:16:29;;;;;;;;;15.33;14.00;;;;;18.37;49.30;101640.56;5057564;28;45268;-59
2021/10/15 08:18:54;;;;;;;;;13.00;13.00;;;;;18.37;49.19;101640.56;5057689;28;45429;-62
2021/10/15 08:21:20;;;;;;;;;17.33;13.00;;;;;18.36;48.90;101644.09;5057652;28;45159;-60
2021/10/15 08:23:46;;;;;;;;;16.00;16.00;;;;;18.36;49.12;101628.13;5057771;28;45236;-58
2021/10/15 08:26:12;;;;;;;;;14.33;13.33;;;;;18.36;49.02;101630.78;5057236;28;47345;-58
2021/10/15 08:28:38;;;;;;;;;12.00;9.33;;;;;18.36;49.26;101633.44;5057350;28;45339;-57
2021/10/15 08:31:04;;;;;;;;;14.33;14.33;;;;;18.36;49.21;101632.56;5057255;28;45453;-53
2021/10/15 08:33:30;;;;;;;;;15.67;15.00;;;;;18.37;49.35;101634.34;5057360;28;45250;-58
2021/10/15 08:35:55;;;;;;;;;15.33;14.00;;;;;18.37;49.44;101631.69;5056165;28;47308;-49
2021/10/15 08:38:20;;;;;;;;;13.00;13.00;;;;;18.36;49.07;101630.78;5056967;28;45429;-61
2021/10/15 08:40:47;;;;;;;;;13.67;13.33;;;;;18.36;49.22;101636.09;5057329;28;45465;-55
2021/10/15 08:43:12;;;;;;;;;15.00;14.00;;;;;18.36;49.00;101637.91;5057428;28;45363;-56
2021/10/15 08:45:38;;;;;;;;;18.67;15.33;;;;;18.36;49.12;101644.09;5057193;28;45754;-54
2021/10/15 08:48:03;;;;;;;;;15.67;15.67;;;;;18.36;49.30;101641.44;5057180;28;45220;-57
2021/10/15 08:50:29;;;;;;;;;12.67;12.67;;;;;18.35;49.18;101636.13;5056967;28;45526;-54
2021/10/15 08:52:55;;;;;;;;;15.00;13.25;;;;;18.35;49.15;101645.00;5057357;28;45375;-59
2021/10/15 08:55:20;;;;;;;;;19.00;16.00;;;;;18.37;49.15;101650.31;5056731;28;47164;-54
2021/10/15 08:57:56;;;;;;;;;18.00;13.67;;;;;18.35;48.97;101639.66;5056886;28;45471;-61
2021/10/15 09:00:25;;;;;;;;;15.67;14.67;;;;;18.35;48.99;101642.34;5057075;28;45344;-56
2021/10/15 09:03:14;;;;;;;;;17.00;14.00;;;;;18.36;49.26;101649.41;5057262;28;45647;-56
2021/10/15 09:05:41;;;;;;;;;15.67;13.33;;;;;18.37;49.41;101644.97;5056755;28;46423;-49
2021/10/15 09:08:07;;;;;;;;;13.33;12.33;;;;;18.35;49.28;101641.44;5056705;28;45352;-54
2021/10/15 09:10:34;;;;;;;;;13.33;13.33;;;;;18.35;49.21;101647.66;5056746;28;45492;-49
2021/10/15 09:13:15;;;;;;;;;14.00;13.00;;;;;18.35;49.16;101652.97;5057077;28;45391;-51
2021/10/15 09:15:40;;;;;;;;;14.00;13.33;;;;;18.36;49.18;101660.06;5055732;28;46348;-52
2021/10/15 09:18:16;;;;;;;;;17.00;14.33;;;;;18.35;49.18;101652.09;5056837;28;45408;-52
2021/10/15 09:20:43;;;;;;;;;12.67;12.33;;;;;18.35;49.31;101650.31;5056826;28;45313;-55
2021/10/15 09:23:10;;;;;;;;;16.00;13.00;;;;;18.34;49.20;101651.19;5056923;28;45503;-52
2021/10/15 09:25:41;;;;;;;;;17.33;15.00;;;;;18.34;49.12;101655.66;5056148;28;46293;-53
2021/10/15 09:28:16;;;;;;;;;12.67;12.67;;;;;18.35;49.16;101662.72;5056435;28;45233;-56
2021/10/15 09:30:43;;;;;;;;;12.67;12.67;;;;;18.35;49.44;101666.28;5056166;28;45386;-56
2021/10/15 09:33:09;;;;;;;;;15.33;14.67;;;;;18.34;49.25;101669.81;5056632;28;45309;-55
2021/10/15 09:35:34;;;;;;;;;16.33;14.33;;;;;18.34;49.21;101667.16;5056167;28;46018;-52
2021/10/15 09:38:06;;;;;;;;;14.00;12.67;;;;;18.34;49.22;101672.47;5056433;28;45464;-53
2021/10/15 09:40:50;;;;;;;;;17.67;15.00;;;;;18.34;49.29;101672.47;5056543;28;45306;-55
2021/10/15 09:43:16;;;;;;;;;14.33;13.00;;;;;18.35;49.45;101678.69;5056372;28;45173;-53
2021/10/15 09:45:45;;;;;;;;;16.67;14.00;;;;;18.34;49.35;101675.16;5055838;28;45974;-55
2021/10/15 09:48:27;;;;;;;;;13.67;13.00;;;;;18.34;49.46;101675.16;5059777;28;45299;-55
2021/10/15 09:51:10;;;;;;;;;15.00;13.00;;;;;18.33;49.40;101668.06;5060188;28;45476;-53
2021/10/15 09:53:35;;;;;;;;;16.67;14.00;;;;;18.34;49.60;101672.47;5060050;28;45244;-56
2021/10/15 09:56:01;;;;;;;;;14.67;14.67;;;;;18.34;49.57;101672.47;5059472;28;46082;-55
2021/10/15 09:58:27;;;;;;;;;13.33;12.67;;;;;18.34;49.38;101672.47;5060181;28;45357;-51
2021/10/15 10:00:54;;;;;;;;;17.33;13.67;;;;;18.34;49.48;101672.47;5059887;28;45374;-51
2021/10/15 10:03:21;;;;;;;;;15.00;13.33;;;;;18.35;49.52;101673.38;5060181;28;45502;-54
2021/10/15 10:05:48;;;;;;;;;15.67;13.33;;;;;18.34;49.32;101671.63;5059596;28;46444;-54
2021/10/15 10:08:15;;;;;;;;;13.67;12.67;;;;;18.35;49.38;101668.06;5059389;28;45434;-53
2021/10/15 10:10:42;;;;;;;;;13.00;13.00;;;;;18.34;49.56;101661.84;5059388;28;45362;-58
2021/10/15 10:13:09;;;;;;;;;11.67;11.67;;;;;18.34;49.41;101677.81;5059627;28;45422;-55
2021/10/15 10:15:38;;;;;;;;;13.00;13.00;;;;;18.34;49.48;101669.81;5059079;28;46463;-53
2021/10/15 10:18:16;;;;;;;;;14.67;13.33;;;;;18.34;49.63;101677.81;5059521;28;45376;-56
2021/10/15 10:20:58;;;;;;;;;11.00;11.00;;;;;18.34;49.16;101677.81;5059136;28;45334;-52
2021/10/15 10:23:31;;;;;;;;;14.00;13.33;;;;;18.34;49.54;101688.44;5059742;28;45407;-57
2021/10/15 10:25:58;;;;;;;;;14.33;14.33;;;;;18.35;49.45;101676.03;5059289;28;47094;-58
2021/10/15 10:28:24;;;;;;;;;13.33;12.33;;;;;18.35;49.53;101694.66;5059445;28;45204;-52
2021/10/15 10:30:53;;;;;;;;;13.67;13.67;;;;;18.34;49.48;101691.13;5059389;28;45247;-58
2021/10/15 10:33:23;;;;;;;;;13.67;12.67;;;;;18.34;49.42;101682.25;5059550;28;45469;-60
2021/10/15 10:35:50;;;;;;;;;14.33;12.33;;;;;18.34;49.67;101675.16;5058543;28;46281;-58
2021/10/15 10:38:18;;;;;;;;;18.33;14.33;;;;;18.35;49.61;101684.91;5058926;28;45335;-55
2021/10/15 10:40:59;;;;;;;;;13.33;12.33;;;;;18.35;49.47;101676.03;5059122;28;45247;-55
2021/10/15 10:43:24;;;;;;;;;18.33;15.67;;;;;18.33;49.45;101681.38;5059441;28;45224;-58
2021/10/15 10:46:16;;;;;;;;;14.00;14.00;;;;;18.34;49.57;101688.44;5058710;28;46212;-54
2021/10/15 10:48:51;;;;;;;;;17.33;15.00;;;;;18.34;49.44;101683.13;5058944;28;45511;-57
2021/10/15 10:51:26;;;;;;;;;17.33;16.67;;;;;18.34;49.47;101683.13;5059150;28;45441;-62
2021/10/15 10:54:01;;;;;;;;;18.00;13.33;;;;;18.34;49.57;101685.78;5059365;28;45431;-60
2021/10/15 10:56:40;;;;;;;;;14.33;13.00;;;;;18.34;49.70;101672.47;5058542;28;46209;-57
2021/10/15 10:59:18;;;;;;;;;15.67;13.67;;;;;18.34;49.67;101677.81;5057971;28;45385;-55
2021/10/15 11:01:48;;;;;;;;;13.00;13.00;;;;;18.35;49.46;101674.28;5058807;28;45366;-55
2021/10/15 11:04:31;;;;;;;;;12.67;12.33;;;;;18.35;49.58;101684.03;5059055;28;45571;-54
2021/10/15 11:07:06;;;;;;;;;15.67;13.67;;;;;18.34;49.65;101677.81;5058427;28;47100;-53
2021/10/15 11:09:40;;;;;;;;;17.67;14.00;;;;;18.34;49.61;101671.63;5058503;28;45370;-57
2021/10/15 11:12:10;;;;;;;;;14.33;14.00;;;;;18.34;49.80;101680.47;5058645;28;45498;-61
2021/10/15 11:15:04;;;;;;;;;16.33;16.00;;;;;18.34;49.71;101669.81;5059021;28;45340;-60
2021/10/15 11:17:33;;;;;;;;;14.33;13.00;;;;;18.34;49.61;101669.81;5058377;28;47289;-56
2021/10/15 11:20:21;;;;;;;;;13.00;13.00;;;;;18.34;49.71;101666.28;5058568;28;45471;-55
2021/10/15 11:22:51;;;;;;;;;14.00;13.67;;;;;18.35;49.58;101663.63;5058706;28;45325;-60